Pleasant Hill, Oregon
Current Conditions -  °F | °C
As of 11:54 PM on Wednesday 22 Oct 2014 (Local Time) from KEUG Reporting Station
Overcast Overcast  
Wind Chill: 57°   Ceiling: 2300
Heat Index: 57°   Visibility: 10mi
Dew Point: 55°   Wind: 6mph
Humidity: 93%   Direction: 170°S
Pressure: 29.8"   Gusts: NA
Location:  43.97°N, 122.93°W
Report Text: KEUG 230654Z AUTO 17005KT 10SM SCT016 OVC023 14/13 A2980 RMK AO2 CIG 016 RNW 34 SLP091 T01390128
Loading
Personal Weather Stations






























Interactive Weather Map New forecast layout! Learn more

10-Day Weather Forecast

Advertisements
Track Severe Weather on mobile